Time;durP1;ratioP1;P1;durP2;ratioP2;P2;SDS_P1;SDS_P2;PMS_P1;PMS_P2;Temp;Humidity;BMP_temperature;BMP_pressure;BME280_temperature;BME280_humidity;BME280_pressure;Samples;Min_cycle;Max_cycle;Signal;HPM_P1;HPM_P2
2022/04/11 00:01:21;;;;;;;;;1.67;1.67;;;;;16.35;53.93;101989.69;5072248;28;8797;-68
2022/04/11 00:03:46;;;;;;;;;2.00;0.67;;;;;16.33;53.73;101984.41;5071577;28;8778;-69
2022/04/11 00:06:11;;;;;;;;;1.00;1.00;;;;;16.29;54.03;101977.31;5069937;28;8778;-69
2022/04/11 00:08:38;;;;;;;;;0.00;0.00;;;;;16.32;53.71;101977.34;5051275;28;8780;-69
2022/04/11 00:11:03;;;;;;;;;0.00;0.00;;;;;16.31;53.71;101975.56;5052131;28;8804;-68
2022/04/11 00:13:28;;;;;;;;;0.00;0.00;;;;;16.35;53.78;101976.50;5064293;28;9276;-69
2022/04/11 00:15:54;;;;;;;;;0.33;0.33;;;;;16.34;54.10;101974.75;5068258;28;9591;-68
2022/04/11 00:18:19;;;;;;;;;1.00;1.00;;;;;16.34;53.99;101973.00;5051991;28;8831;-69
2022/04/11 00:20:47;;;;;;;;;1.00;0.00;;;;;16.30;53.67;101957.09;5051695;28;8804;-69
2022/04/11 00:23:12;;;;;;;;;1.00;1.00;;;;;16.31;53.95;101972.94;5051367;28;8798;-69
2022/04/11 00:25:38;;;;;;;;;0.00;0.00;;;;;16.32;53.90;101977.34;5051854;28;9110;-69
2022/04/11 00:28:03;;;;;;;;;0.00;0.00;;;;;16.31;54.04;101969.41;5051004;28;9513;-70
2022/04/11 00:30:28;;;;;;;;;1.00;1.00;;;;;16.36;53.76;101963.34;5050739;28;8772;-70
2022/04/11 00:32:54;;;;;;;;;1.00;0.00;;;;;16.36;53.58;101960.72;5051297;28;8907;-69
2022/04/11 00:35:19;;;;;;;;;0.67;0.67;;;;;16.37;53.97;101957.22;5052057;28;8784;-69
2022/04/11 00:37:44;;;;;;;;;1.00;1.00;;;;;16.36;53.98;101962.47;5050978;28;8794;-69
2022/04/11 00:40:13;;;;;;;;;0.00;0.00;;;;;16.35;53.75;101961.56;5051689;28;8905;-70
2022/04/11 00:42:39;;;;;;;;;2.67;1.00;;;;;16.35;53.57;101960.69;5051830;28;8867;-69
2022/04/11 00:45:05;;;;;;;;;0.00;0.00;;;;;16.36;53.69;101957.19;5050620;28;9449;-68
2022/04/11 00:47:30;;;;;;;;;0.67;0.67;;;;;16.35;53.40;101958.06;5051365;28;8772;-70
2022/04/11 00:50:00;;;;;;;;;1.00;1.00;;;;;16.34;53.36;101959.81;5051298;28;8874;-70
2022/04/11 00:52:28;;;;;;;;;0.00;0.00;;;;;16.34;53.22;101958.94;5050991;28;8772;-69
2022/04/11 00:54:53;;;;;;;;;1.67;0.67;;;;;16.35;53.78;101963.31;5051100;28;9062;-69
2022/04/11 00:57:20;;;;;;;;;1.00;1.00;;;;;16.30;53.02;101952.72;5051299;28;9965;-69
2022/04/11 00:59:45;;;;;;;;;0.00;0.00;;;;;16.34;53.65;101959.81;5050214;28;8982;-69
2022/04/11 01:02:11;;;;;;;;;1.00;0.00;;;;;16.33;53.50;101958.03;5051350;28;9658;-69
2022/04/11 01:04:36;;;;;;;;;1.00;0.00;;;;;16.35;52.81;101955.41;5051048;28;8792;-69
2022/04/11 01:07:01;;;;;;;;;0.00;0.00;;;;;16.36;53.21;101959.84;5049963;28;8790;-69
2022/04/11 01:09:27;;;;;;;;;0.33;0.33;;;;;16.33;53.02;101955.41;5051169;28;8773;-69
2022/04/11 01:11:53;;;;;;;;;0.00;0.00;;;;;16.36;53.48;101951.94;5049756;28;8801;-68
2022/04/11 01:14:19;;;;;;;;;0.00;0.00;;;;;16.33;52.54;101952.78;5050752;28;8839;-68
2022/04/11 01:16:49;;;;;;;;;0.00;0.00;;;;;16.34;53.61;101946.66;5053472;28;8791;-69
2022/04/11 01:19:15;;;;;;;;;0.00;0.00;;;;;16.31;52.75;101948.31;5070169;28;9435;-69
2022/04/11 01:21:40;;;;;;;;;0.67;0.67;;;;;16.36;52.55;101944.00;5070755;28;9241;-69
2022/04/11 01:24:09;;;;;;;;;0.00;0.00;;;;;16.33;52.85;101938.72;5070784;28;8894;-69
2022/04/11 01:26:35;;;;;;;;;0.00;0.00;;;;;16.33;53.20;101944.88;5070905;28;8760;-69
2022/04/11 01:29:02;;;;;;;;;0.00;0.00;;;;;16.34;52.65;101943.13;5070955;28;9172;-69
2022/04/11 01:31:27;;;;;;;;;0.00;0.00;;;;;16.34;52.99;101938.75;5070354;28;9255;-69
2022/04/11 01:33:53;;;;;;;;;0.00;0.00;;;;;16.34;52.81;101932.59;5070029;28;9092;-70
2022/04/11 01:36:24;;;;;;;;;0.00;0.00;;;;;16.35;53.14;101940.50;5070802;28;8782;-69
2022/04/11 01:38:50;;;;;;;;;1.00;1.00;;;;;16.34;52.71;101938.75;5070485;28;9541;-69
2022/04/11 01:41:15;;;;;;;;;1.33;1.00;;;;;16.33;52.78;101938.72;5069446;28;9151;-69
2022/04/11 01:43:40;;;;;;;;;0.00;0.00;;;;;16.32;53.02;101936.94;5070245;28;8787;-69
2022/04/11 01:46:05;;;;;;;;;0.33;0.33;;;;;16.33;52.67;101933.44;5070441;28;8763;-70
2022/04/11 01:48:31;;;;;;;;;0.00;0.00;;;;;16.32;52.30;101931.66;5069791;28;8764;-69
2022/04/11 01:50:56;;;;;;;;;0.00;0.00;;;;;16.33;52.39;101931.69;5070168;28;8755;-69
2022/04/11 01:53:21;;;;;;;;;0.00;0.00;;;;;16.34;52.58;101930.84;5070481;28;8782;-69
2022/04/11 01:55:47;;;;;;;;;0.33;0.00;;;;;16.31;52.87;101928.13;5069346;28;9527;-70
2022/04/11 01:58:13;;;;;;;;;0.00;0.00;;;;;16.31;52.19;101925.50;5070307;28;8791;-70
2022/04/11 02:00:39;;;;;;;;;0.00;0.00;;;;;16.32;52.58;101924.63;5070278;28;8818;-70
2022/04/11 02:03:07;;;;;;;;;0.00;0.00;;;;;16.32;52.54;101926.38;5069519;28;9161;-70
2022/04/11 02:05:33;;;;;;;;;0.00;0.00;;;;;16.32;52.57;101926.38;5070402;28;8868;-70
2022/04/11 02:07:59;;;;;;;;;0.00;0.00;;;;;16.31;52.82;101924.59;5065822;28;9202;-68
2022/04/11 02:10:24;;;;;;;;;1.00;0.67;;;;;16.30;52.09;101921.09;5069643;28;9152;-70
2022/04/11 02:12:51;;;;;;;;;1.00;0.00;;;;;16.31;52.64;101925.50;5069904;28;8783;-70
2022/04/11 02:15:17;;;;;;;;;0.00;0.00;;;;;16.31;52.48;101925.50;5070050;28;8747;-68
2022/04/11 02:17:44;;;;;;;;;0.33;0.33;;;;;16.31;52.51;101925.50;5070321;28;9887;-69
2022/04/11 02:20:11;;;;;;;;;1.00;0.00;;;;;16.32;52.18;101924.63;5070161;28;8811;-69
2022/04/11 02:22:55;;;;;;;;;0.00;0.00;;;;;16.34;52.31;101932.59;5069967;28;9298;-69
2022/04/11 02:25:24;;;;;;;;;0.00;0.00;;;;;16.32;52.29;101929.03;5070657;28;9166;-69
2022/04/11 02:27:50;;;;;;;;;1.00;1.00;;;;;16.30;52.24;101929.00;5069875;28;9153;-69
2022/04/11 02:30:22;;;;;;;;;0.00;0.00;;;;;16.32;51.93;101924.63;5069445;28;9221;-68
2022/04/11 02:32:49;;;;;;;;;1.33;1.33;;;;;16.33;52.02;101933.44;5069679;28;9321;-69
2022/04/11 02:35:16;;;;;;;;;1.00;1.00;;;;;16.30;51.88;101926.38;5070007;28;9229;-69
2022/04/11 02:37:42;;;;;;;;;0.00;0.00;;;;;16.32;52.15;101924.63;5069136;28;9258;-69
2022/04/11 02:40:07;;;;;;;;;0.00;0.00;;;;;16.31;52.24;101927.25;5069417;28;9399;-68
2022/04/11 02:42:33;;;;;;;;;1.00;0.67;;;;;16.30;52.01;101929.00;5069765;28;8815;-69
2022/04/11 02:44:58;;;;;;;;;0.33;0.33;;;;;16.27;52.06;101921.03;5068644;28;8806;-68
2022/04/11 02:47:24;;;;;;;;;2.00;0.67;;;;;16.29;51.92;101921.97;5070213;28;8779;-69
2022/04/11 02:49:49;;;;;;;;;0.00;0.00;;;;;16.29;51.93;101913.16;5069734;28;8940;-69
2022/04/11 02:52:15;;;;;;;;;0.00;0.00;;;;;16.30;51.91;101921.09;5070333;28;8896;-69
2022/04/11 02:54:41;;;;;;;;;0.33;0.00;;;;;16.30;51.90;101920.22;5073825;28;8768;-69
2022/04/11 02:57:07;;;;;;;;;1.00;0.33;;;;;16.30;51.95;101917.59;5073290;28;12096;-69
2022/04/11 02:59:33;;;;;;;;;0.00;0.00;;;;;16.28;52.03;101920.19;5073124;28;8845;-69
2022/04/11 03:02:00;;;;;;;;;0.67;0.00;;;;;16.28;52.31;101914.91;5073366;28;9364;-69
2022/04/11 03:04:26;;;;;;;;;1.00;0.00;;;;;16.27;52.02;101917.53;5073101;28;9231;-69
2022/04/11 03:06:52;;;;;;;;;0.00;0.00;;;;;16.25;52.24;101911.34;5069217;28;9129;-69
2022/04/11 03:09:17;;;;;;;;;1.00;1.00;;;;;16.27;51.90;101912.28;5073746;28;10364;-69
2022/04/11 03:11:43;;;;;;;;;0.33;0.00;;;;;16.27;51.86;101915.75;5073130;28;8784;-69
2022/04/11 03:14:08;;;;;;;;;0.00;0.00;;;;;16.25;51.93;101908.72;5073246;28;8783;-71
2022/04/11 03:16:34;;;;;;;;;0.00;0.00;;;;;16.27;51.79;101907.84;5073115;28;9526;-70
2022/04/11 03:18:59;;;;;;;;;0.33;0.00;;;;;16.27;51.57;101905.22;5071959;28;8778;-69
2022/04/11 03:21:25;;;;;;;;;0.33;0.33;;;;;16.24;51.58;101902.53;5073011;28;9353;-70
2022/04/11 03:23:50;;;;;;;;;0.33;0.33;;;;;16.28;51.68;101901.72;5072838;28;8789;-69
2022/04/11 03:26:15;;;;;;;;;0.00;0.00;;;;;16.29;51.16;101900.00;5072519;28;8775;-70
2022/04/11 03:28:40;;;;;;;;;1.00;1.00;;;;;16.24;51.32;101899.91;5073023;28;8790;-69
2022/04/11 03:31:08;;;;;;;;;1.00;1.00;;;;;16.25;51.31;101893.78;5072756;28;8797;-69
2022/04/11 03:33:34;;;;;;;;;0.00;0.00;;;;;16.24;51.30;101894.63;5072378;28;9703;-70
2022/04/11 03:36:00;;;;;;;;;0.00;0.00;;;;;16.30;51.61;101894.75;5072580;28;9253;-69
2022/04/11 03:38:25;;;;;;;;;0.00;0.00;;;;;16.28;51.29;101887.66;5072763;28;9736;-69
2022/04/11 03:40:50;;;;;;;;;0.00;0.00;;;;;16.27;51.36;101899.09;5072057;28;8949;-69
2022/04/11 03:43:15;;;;;;;;;0.00;0.00;;;;;16.29;51.27;101892.97;5072764;28;8774;-69
2022/04/11 03:45:41;;;;;;;;;0.33;0.00;;;;;16.28;51.63;101888.56;5068569;28;8810;-70
2022/04/11 03:48:06;;;;;;;;;0.00;0.00;;;;;16.26;51.46;101892.94;5072040;28;8865;-69
2022/04/11 03:50:52;;;;;;;;;0.00;0.00;;;;;16.27;50.81;101892.03;5072914;28;8774;-70
2022/04/11 03:53:18;;;;;;;;;0.00;0.00;;;;;16.26;51.14;101895.56;5072616;28;8770;-70
2022/04/11 03:55:44;;;;;;;;;0.00;0.00;;;;;16.27;51.31;101892.03;5071987;28;9141;-70
2022/04/11 03:58:09;;;;;;;;;0.00;0.00;;;;;16.25;51.36;101892.91;5072989;28;8850;-70
2022/04/11 04:00:35;;;;;;;;;0.00;0.00;;;;;16.25;50.56;101885.00;5072604;28;8821;-72
2022/04/11 04:03:10;;;;;;;;;0.67;0.00;;;;;16.26;50.92;101895.56;5071155;28;8758;-70
2022/04/11 04:05:43;;;;;;;;;0.00;0.00;;;;;16.23;51.12;101890.22;5072635;28;9470;-70
2022/04/11 04:08:10;;;;;;;;;0.00;0.00;;;;;16.26;50.94;101892.94;5067806;28;9250;-70
2022/04/11 04:10:35;;;;;;;;;0.00;0.00;;;;;16.24;51.17;101888.47;5072497;28;9180;-70
2022/04/11 04:13:02;;;;;;;;;0.00;0.00;;;;;16.24;50.86;101885.84;5072064;28;9275;-69
2022/04/11 04:15:30;;;;;;;;;1.00;0.00;;;;;16.25;50.96;101880.63;5072378;28;8764;-69
2022/04/11 04:17:56;;;;;;;;;2.00;1.00;;;;;16.23;51.45;101884.09;5071959;28;9191;-69
2022/04/11 04:20:25;;;;;;;;;2.00;0.00;;;;;16.28;50.55;101878.00;5072570;28;9276;-69
2022/04/11 04:22:51;;;;;;;;;0.00;0.00;;;;;16.26;50.64;101879.75;5071774;28;8774;-69
2022/04/11 04:25:16;;;;;;;;;0.33;0.33;;;;;16.29;50.82;101878.91;5072233;28;9146;-69
2022/04/11 04:27:41;;;;;;;;;0.00;0.00;;;;;16.29;50.79;101868.38;5072326;28;8845;-69
2022/04/11 04:30:10;;;;;;;;;0.00;0.00;;;;;16.28;50.63;101869.22;5070984;28;8812;-69
2022/04/11 04:32:35;;;;;;;;;0.00;0.00;;;;;16.25;50.45;101867.44;5071769;28;8781;-69
2022/04/11 04:35:02;;;;;;;;;0.00;0.00;;;;;16.27;50.51;101862.19;5071958;28;8940;-69
2022/04/11 04:37:27;;;;;;;;;0.00;0.00;;;;;16.29;50.76;101869.25;5071415;28;8766;-70
2022/04/11 04:39:52;;;;;;;;;1.00;0.67;;;;;16.26;50.42;101869.22;5071548;28;8989;-68
2022/04/11 04:42:22;;;;;;;;;1.00;1.00;;;;;16.30;50.45;101863.13;5071716;28;8797;-69
2022/04/11 04:44:47;;;;;;;;;0.00;0.00;;;;;16.32;50.19;101864.03;5070732;28;8765;-69
2022/04/11 04:47:15;;;;;;;;;1.00;1.00;;;;;16.29;50.42;101871.88;5071695;28;9211;-70
2022/04/11 04:49:41;;;;;;;;;1.00;1.00;;;;;16.28;50.51;101866.59;5071961;28;8884;-70
2022/04/11 04:52:06;;;;;;;;;0.67;0.67;;;;;16.28;50.75;101864.84;5070560;28;9201;-70
2022/04/11 04:54:32;;;;;;;;;0.33;0.00;;;;;16.28;50.54;101856.03;5071653;28;8786;-68
2022/04/11 04:56:57;;;;;;;;;1.00;1.00;;;;;16.38;53.81;101860.59;5070366;28;9580;-70
2022/04/11 04:59:22;;;;;;;;;1.00;1.00;;;;;16.43;53.75;101866.81;5071225;28;8906;-68
2022/04/11 05:01:47;;;;;;;;;1.67;1.67;;;;;16.51;55.85;101870.44;5070796;28;9471;-70
2022/04/11 05:04:13;;;;;;;;;0.67;0.67;;;;;16.58;56.10;101863.53;5070543;28;8806;-70
2022/04/11 05:06:38;;;;;;;;;2.50;1.50;;;;;16.63;55.87;101860.09;5067399;28;8819;-69
2022/04/11 05:09:06;;;;;;;;;3.00;1.00;;;;;16.68;56.25;101858.41;5073834;28;8799;-71
2022/04/11 05:11:31;;;;;;;;;4.50;3.00;;;;;16.78;58.34;101849.75;5070869;28;8865;-70
2022/04/11 05:13:56;;;;;;;;;4.25;1.75;;;;;16.87;58.93;101855.09;5070600;28;9486;-70
2022/04/11 05:16:22;;;;;;;;;4.00;3.25;;;;;16.89;60.70;101856.03;5070588;28;8813;-70
2022/04/11 05:18:47;;;;;;;;;4.00;3.00;;;;;16.97;63.74;101849.97;5070730;28;8845;-71
2022/04/11 05:21:12;;;;;;;;;4.75;3.50;;;;;16.99;63.49;101858.75;5071443;28;8835;-71
2022/04/11 05:23:38;;;;;;;;;1.75;1.75;;;;;17.01;63.04;101862.31;5072191;28;8814;-71
2022/04/11 05:26:06;;;;;;;;;2.67;2.67;;;;;17.09;64.50;101865.94;5070523;28;8948;-71
2022/04/11 05:28:32;;;;;;;;;5.25;5.25;;;;;17.07;65.19;101865.91;5071340;28;8785;-70
2022/04/11 05:30:59;;;;;;;;;3.25;3.00;;;;;17.03;65.14;101858.81;5070534;28;9454;-70
2022/04/11 05:33:24;;;;;;;;;4.25;4.00;;;;;17.03;65.31;101872.00;5070079;28;9470;-71
2022/04/11 05:35:50;;;;;;;;;3.50;2.50;;;;;17.01;65.69;101871.13;5070611;28;9529;-70
2022/04/11 05:38:16;;;;;;;;;2.75;2.00;;;;;17.01;65.51;101873.75;5070556;28;8774;-70
2022/04/11 05:40:42;;;;;;;;;5.00;3.50;;;;;16.99;65.22;101866.66;5070109;28;8806;-68
2022/04/11 05:43:08;;;;;;;;;5.75;4.75;;;;;16.99;64.69;101870.19;5070396;28;9470;-70
2022/04/11 05:45:33;;;;;;;;;4.25;4.25;;;;;16.98;64.73;101870.19;5070438;28;9405;-70
2022/04/11 05:47:58;;;;;;;;;3.00;3.00;;;;;16.91;64.48;101864.84;5069412;28;8801;-69
2022/04/11 05:50:24;;;;;;;;;3.50;3.50;;;;;16.94;64.10;101873.66;5070687;28;8808;-70
2022/04/11 05:52:51;;;;;;;;;7.75;6.75;;;;;16.92;64.38;101868.34;5070160;28;8786;-70
2022/04/11 05:55:17;;;;;;;;;8.00;5.50;;;;;16.90;64.09;101871.00;5069632;28;8781;-71
2022/04/11 05:57:43;;;;;;;;;4.50;4.50;;;;;16.95;63.68;101872.78;5070438;28;9646;-71
2022/04/11 06:00:08;;;;;;;;;6.75;6.00;;;;;16.90;63.79;101865.72;5070214;28;8818;-69
2022/04/11 06:02:34;;;;;;;;;3.00;2.00;;;;;16.89;63.39;101869.22;5069804;28;10343;-71
2022/04/11 06:04:59;;;;;;;;;4.75;3.75;;;;;16.87;63.13;101868.31;5070272;28;8778;-71
2022/04/11 06:07:27;;;;;;;;;8.25;4.50;;;;;16.88;63.00;101866.56;5069633;28;8804;-71
2022/04/11 06:09:52;;;;;;;;;5.50;3.00;;;;;16.83;62.98;101863.00;5069973;28;8768;-70
2022/04/11 06:12:21;;;;;;;;;2.00;2.00;;;;;16.84;62.74;101864.75;5070202;28;9708;-71
2022/04/11 06:14:47;;;;;;;;;4.00;4.00;;;;;16.85;62.52;101862.13;5069370;28;8758;-71
2022/04/11 06:17:12;;;;;;;;;3.75;2.75;;;;;16.85;62.30;101861.25;5070115;28;9690;-70
2022/04/11 06:19:37;;;;;;;;;4.00;2.50;;;;;16.85;62.24;101866.53;5070560;28;8797;-70
2022/04/11 06:22:03;;;;;;;;;4.00;3.00;;;;;16.86;62.30;101866.56;5069996;28;8946;-71
2022/04/11 06:24:28;;;;;;;;;4.00;4.00;;;;;16.86;62.04;101870.94;5070690;28;8782;-70
2022/04/11 06:26:53;;;;;;;;;4.25;2.75;;;;;16.87;61.67;101870.09;5070818;28;9398;-69
2022/04/11 06:29:18;;;;;;;;;4.50;3.00;;;;;16.88;61.85;101869.19;5073421;28;8794;-70
2022/04/11 06:31:44;;;;;;;;;1.75;1.75;;;;;16.91;61.68;101877.13;5074168;28;8817;-71
2022/04/11 06:34:09;;;;;;;;;1.00;1.00;;;;;16.88;61.35;101878.00;5074333;28;8870;-71
2022/04/11 06:36:34;;;;;;;;;3.25;3.25;;;;;16.88;61.57;101880.63;5073229;28;8850;-71
2022/04/11 06:39:00;;;;;;;;;6.25;6.00;;;;;16.89;61.26;101877.13;5073822;28;8778;-70
2022/04/11 06:41:25;;;;;;;;;4.50;4.50;;;;;16.89;60.80;101884.16;5073887;28;8822;-70
2022/04/11 06:43:50;;;;;;;;;3.00;3.00;;;;;16.89;60.91;101885.03;5073125;28;8782;-70
2022/04/11 06:46:15;;;;;;;;;5.25;4.00;;;;;16.85;60.48;101879.72;5074011;28;8770;-70
2022/04/11 06:48:41;;;;;;;;;2.67;2.67;;;;;16.85;60.59;101880.59;5074237;28;8818;-71
2022/04/11 06:51:06;;;;;;;;;5.25;5.25;;;;;16.85;60.24;101877.97;5072935;28;8770;-71
2022/04/11 06:53:31;;;;;;;;;3.00;2.50;;;;;16.84;60.38;101872.66;5074136;28;8802;-70
2022/04/11 06:55:56;;;;;;;;;7.25;6.75;;;;;16.84;59.94;101876.19;5073399;28;8810;-70
2022/04/11 06:58:22;;;;;;;;;7.25;3.25;;;;;16.83;60.02;101877.03;5073125;28;8905;-71
2022/04/11 07:00:47;;;;;;;;;2.33;2.33;;;;;16.85;59.76;101882.34;5073043;28;8837;-71
2022/04/11 07:03:12;;;;;;;;;4.25;3.25;;;;;16.81;59.80;101869.97;5073876;28;8802;-70
2022/04/11 07:05:38;;;;;;;;;5.50;4.00;;;;;16.82;59.58;101869.13;5072860;28;8812;-71
2022/04/11 07:08:05;;;;;;;;;5.50;5.50;;;;;16.83;59.27;101869.13;5073015;28;8830;-70
2022/04/11 07:10:31;;;;;;;;;3.00;3.00;;;;;16.84;59.15;101870.91;5073522;28;8780;-70
2022/04/11 07:12:57;;;;;;;;;3.25;3.25;;;;;16.85;59.18;101866.53;5072504;28;9682;-70
2022/04/11 07:15:22;;;;;;;;;3.50;3.00;;;;;16.82;58.89;101859.47;5073585;28;9502;-70
2022/04/11 07:17:48;;;;;;;;;4.00;3.50;;;;;16.83;58.78;101855.94;5072235;28;9689;-71
2022/04/11 07:20:14;;;;;;;;;4.00;3.00;;;;;16.83;58.70;101858.56;5073751;28;8841;-70
2022/04/11 07:22:39;;;;;;;;;3.75;3.75;;;;;16.83;58.54;101866.50;5074041;28;9567;-69
2022/04/11 07:25:04;;;;;;;;;3.00;3.00;;;;;16.85;58.42;101864.78;5072368;28;8774;-70
2022/04/11 07:27:30;;;;;;;;;7.00;4.00;;;;;16.86;58.03;101866.56;5073063;28;8800;-70
2022/04/11 07:29:55;;;;;;;;;6.75;4.50;;;;;16.84;58.11;101862.09;5073557;28;8912;-70
2022/04/11 07:32:21;;;;;;;;;6.00;4.50;;;;;16.84;57.76;101860.34;5072618;28;8800;-70
2022/04/11 07:34:47;;;;;;;;;4.25;4.25;;;;;16.85;57.86;101854.22;5072882;28;8905;-70
2022/04/11 07:37:13;;;;;;;;;6.50;4.50;;;;;16.86;57.82;101856.00;5072553;28;8786;-70
2022/04/11 07:39:38;;;;;;;;;5.00;5.00;;;;;16.87;57.66;101859.53;5072309;28;9429;-71
2022/04/11 07:42:04;;;;;;;;;3.67;3.67;;;;;16.85;57.41;101842.78;5072518;28;12128;-70
2022/04/11 07:44:29;;;;;;;;;4.75;4.75;;;;;16.87;57.39;101841.06;5073005;28;8880;-71
2022/04/11 07:46:55;;;;;;;;;7.00;5.00;;;;;16.83;57.38;101840.13;5072456;28;9510;-70
2022/04/11 07:49:20;;;;;;;;;6.00;5.50;;;;;16.87;57.16;101839.28;5072606;28;8773;-69
2022/04/11 07:51:45;;;;;;;;;2.67;2.67;;;;;16.86;57.22;101836.66;5072341;28;8774;-69
2022/04/11 07:54:10;;;;;;;;;6.00;6.00;;;;;16.88;56.98;101837.53;5072154;28;8774;-69
2022/04/11 07:56:36;;;;;;;;;3.50;3.50;;;;;16.89;56.85;101834.03;5072544;28;8798;-70
2022/04/11 07:59:01;;;;;;;;;4.75;4.75;;;;;16.91;56.79;101832.28;5072113;28;8778;-71
2022/04/11 08:01:28;;;;;;;;;5.00;4.75;;;;;16.91;56.75;101832.28;5073337;28;8794;-71
2022/04/11 08:03:53;;;;;;;;;6.50;4.00;;;;;16.92;56.41;101828.78;5072093;28;8809;-70
2022/04/11 08:06:18;;;;;;;;;4.00;4.00;;;;;16.94;56.67;101823.53;5075055;28;9591;-71
2022/04/11 08:08:47;;;;;;;;;4.25;4.00;;;;;16.96;56.15;101824.44;5071486;28;8866;-72
2022/04/11 08:11:17;;;;;;;;;5.50;4.00;;;;;17.00;56.23;101823.59;5072585;28;9479;-71
2022/04/11 08:13:43;;;;;;;;;5.25;3.50;;;;;17.00;55.97;101816.56;5072814;28;9411;-71
2022/04/11 08:16:09;;;;;;;;;4.00;4.00;;;;;17.03;55.85;101818.34;5071884;28;10371;-73
2022/04/11 08:18:35;;;;;;;;;3.25;3.25;;;;;17.04;55.76;101823.66;5072540;28;9482;-71
2022/04/11 08:21:01;;;;;;;;;4.75;4.75;;;;;17.04;55.75;101820.13;5073491;28;11408;-72
2022/04/11 08:23:27;;;;;;;;;4.50;3.25;;;;;17.04;55.52;101817.50;5072487;28;8781;-71
2022/04/11 08:25:52;;;;;;;;;5.25;5.25;;;;;17.03;55.75;101811.31;5071921;28;9572;-70
2022/04/11 08:28:19;;;;;;;;;9.00;4.75;;;;;17.07;55.49;101812.25;5071168;28;8850;-71
2022/04/11 08:30:45;;;;;;;;;4.25;4.25;;;;;17.04;55.44;101809.56;5071706;28;8777;-71
2022/04/11 08:33:11;;;;;;;;;4.00;4.00;;;;;17.07;55.26;101814.88;5071703;28;9380;-69
2022/04/11 08:35:36;;;;;;;;;3.50;3.50;;;;;17.09;55.40;101814.06;5071184;28;8843;-70
2022/04/11 08:38:05;;;;;;;;;5.25;4.00;;;;;17.11;55.41;101811.41;5071479;28;9455;-71
2022/04/11 08:40:30;;;;;;;;;6.75;4.00;;;;;17.15;55.01;101813.22;5071410;28;8822;-70
2022/04/11 08:42:55;;;;;;;;;4.25;4.00;;;;;17.15;55.33;101808.81;5070968;28;9387;-70
2022/04/11 08:45:23;;;;;;;;;4.00;4.00;;;;;17.16;55.29;101812.34;5071703;28;8805;-70
2022/04/11 08:47:50;;;;;;;;;3.75;3.75;;;;;17.16;54.89;101809.72;5071400;28;8770;-71
2022/04/11 08:50:16;;;;;;;;;4.00;4.00;;;;;17.18;54.87;101813.22;5069723;28;9479;-70
2022/04/11 08:52:42;;;;;;;;;6.00;4.00;;;;;17.20;54.87;101815.03;5071471;28;9699;-70
2022/04/11 08:55:09;;;;;;;;;4.00;4.00;;;;;17.21;54.92;101821.19;5071109;28;9447;-70
2022/04/11 08:57:38;;;;;;;;;5.00;5.00;;;;;17.20;54.49;101812.41;5070874;28;8784;-70
2022/04/11 09:00:07;;;;;;;;;3.00;3.00;;;;;17.22;54.43;101815.94;5071110;28;9508;-70
2022/04/11 09:02:34;;;;;;;;;4.00;4.00;;;;;17.23;54.63;101816.81;5071589;28;9410;-69
2022/04/11 09:05:00;;;;;;;;;5.50;3.75;;;;;17.22;54.39;101807.13;5070210;28;9633;-70
2022/04/11 09:07:25;;;;;;;;;3.75;3.75;;;;;17.25;54.55;101807.16;5070471;28;9461;-70
2022/04/11 09:09:50;;;;;;;;;3.00;3.00;;;;;17.25;54.59;101799.22;5070129;28;8803;-70
2022/04/11 09:12:17;;;;;;;;;4.00;4.00;;;;;17.26;54.40;101799.25;5069522;28;8792;-69
2022/04/11 09:14:44;;;;;;;;;5.33;3.00;;;;;17.26;54.17;101793.09;5070681;28;8842;-71
2022/04/11 09:17:10;;;;;;;;;2.33;1.33;;;;;17.28;54.13;101796.66;5069897;28;9395;-70
2022/04/11 09:19:36;;;;;;;;;2.50;2.50;;;;;17.30;54.04;101793.13;5070415;28;9272;-69
2022/04/11 09:22:02;;;;;;;;;5.00;2.75;;;;;17.26;54.28;101787.81;5070348;28;9324;-70
2022/04/11 09:24:30;;;;;;;;;4.00;3.00;;;;;17.29;54.36;101783.44;5069733;28;9417;-69
2022/04/11 09:26:56;;;;;;;;;4.00;4.00;;;;;17.31;53.85;101788.75;5070304;28;9316;-70
2022/04/11 09:29:23;;;;;;;;;6.25;4.00;;;;;17.31;54.32;101789.63;5070487;28;9588;-70
2022/04/11 09:31:50;;;;;;;;;2.75;2.75;;;;;17.33;54.09;101784.34;5069550;28;8786;-69
2022/04/11 09:34:19;;;;;;;;;4.00;3.25;;;;;17.33;54.00;101779.97;5070772;28;9449;-68
2022/04/11 09:36:48;;;;;;;;;3.50;3.50;;;;;17.32;54.00;101775.53;5070546;28;9506;-69
2022/04/11 09:39:13;;;;;;;;;3.75;3.75;;;;;17.35;53.89;101766.78;5070115;28;9614;-69
2022/04/11 09:41:43;;;;;;;;;3.00;3.00;;;;;17.34;53.97;101776.47;5070877;28;9735;-69
2022/04/11 09:44:28;;;;;;;;;6.00;6.00;;;;;17.36;53.68;101779.09;5070904;28;8801;-69
2022/04/11 09:46:58;;;;;;;;;3.50;3.50;;;;;17.38;53.48;101782.66;5069836;28;9460;-70
2022/04/11 09:49:24;;;;;;;;;3.75;3.75;;;;;17.37;53.58;101778.22;5070827;28;9533;-70
2022/04/11 09:52:05;;;;;;;;;3.33;3.00;;;;;17.37;53.69;101776.47;5070382;28;9413;-69
2022/04/11 09:54:31;;;;;;;;;3.00;2.67;;;;;17.39;53.52;101774.75;5069900;28;9328;-70
2022/04/11 09:57:01;;;;;;;;;2.00;2.00;;;;;17.43;53.70;101777.41;5070640;28;9395;-70
2022/04/11 09:59:27;;;;;;;;;2.00;2.00;;;;;17.43;53.50;101770.38;5069961;28;9317;-70
2022/04/11 10:01:53;;;;;;;;;2.67;2.67;;;;;17.45;53.27;101765.97;5069861;28;10008;-70
2022/04/11 10:04:19;;;;;;;;;3.00;3.00;;;;;17.48;53.58;101775.69;5070713;28;8805;-70
2022/04/11 10:06:45;;;;;;;;;3.00;3.00;;;;;17.49;53.49;101759.84;5069016;28;9196;-70
2022/04/11 10:09:12;;;;;;;;;2.25;2.25;;;;;17.51;53.19;101754.59;5070161;28;9357;-70
2022/04/11 10:11:45;;;;;;;;;5.50;5.50;;;;;17.53;53.16;101755.47;5070496;28;8798;-70
2022/04/11 10:14:11;;;;;;;;;4.00;4.00;;;;;17.53;53.34;101756.38;5069516;28;9591;-71
2022/04/11 10:16:44;;;;;;;;;3.50;3.50;;;;;17.52;53.07;101764.25;5069972;28;9412;-70
2022/04/11 10:19:11;;;;;;;;;2.50;2.25;;;;;17.55;53.20;101759.91;5070125;28;9480;-70
2022/04/11 10:21:40;;;;;;;;;3.50;3.50;;;;;17.54;52.92;101760.78;5069373;28;9426;-69
2022/04/11 10:24:13;;;;;;;;;3.00;3.00;;;;;17.54;52.78;101754.63;5070162;28;9468;-70
2022/04/11 10:26:55;;;;;;;;;2.00;2.00;;;;;17.55;52.89;101754.63;5069905;28;9452;-70
2022/04/11 10:29:31;;;;;;;;;2.00;2.00;;;;;17.60;52.67;101758.22;5069796;28;9473;-70
2022/04/11 10:32:12;;;;;;;;;2.25;2.25;;;;;17.58;52.75;101746.78;5069492;28;10311;-70
2022/04/11 10:34:51;;;;;;;;;3.00;3.00;;;;;17.62;52.55;101739.75;5069566;28;9475;-70
2022/04/11 10:37:18;;;;;;;;;4.00;3.00;;;;;17.62;52.51;101747.69;5069902;28;9569;-69
2022/04/11 10:39:45;;;;;;;;;3.00;3.00;;;;;17.62;52.50;101743.25;5070097;28;9573;-70
2022/04/11 10:42:25;;;;;;;;;4.00;3.00;;;;;17.66;52.31;101739.75;5069276;28;9381;-70
2022/04/11 10:44:53;;;;;;;;;3.00;3.00;;;;;17.67;52.03;101738.00;5069831;28;9390;-70
2022/04/11 10:47:47;;;;;;;;;2.50;1.25;;;;;17.68;52.20;101732.75;5070220;28;9530;-70
2022/04/11 10:50:15;;;;;;;;;3.25;3.25;;;;;17.71;52.19;101731.88;5061795;28;9365;-70
2022/04/11 10:52:41;;;;;;;;;5.00;5.00;;;;;17.69;51.96;101728.34;5070071;28;9323;-70
2022/04/11 10:55:18;;;;;;;;;2.50;2.50;;;;;17.72;51.92;101731.00;5069542;28;9457;-71
2022/04/11 10:57:45;;;;;;;;;3.00;3.00;;;;;17.71;52.01;101727.47;5068804;28;8786;-70
2022/04/11 11:00:15;;;;;;;;;2.00;2.00;;;;;17.73;51.68;101715.16;5069639;28;9561;-70
2022/04/11 11:02:52;;;;;;;;;2.75;2.00;;;;;17.73;51.71;101712.50;5069306;28;9390;-70
2022/04/11 11:05:38;;;;;;;;;4.00;2.25;;;;;17.72;51.63;101709.88;5076514;28;9467;-70
2022/04/11 11:08:10;;;;;;;;;5.50;3.00;;;;;17.77;51.49;101701.09;5069847;28;9419;-69
2022/04/11 11:10:46;;;;;;;;;3.00;3.00;;;;;17.75;51.35;101689.66;5068746;28;9316;-70
2022/04/11 11:13:41;;;;;;;;;1.75;1.75;;;;;17.78;51.42;101686.13;5070653;28;9490;-69
2022/04/11 11:16:06;;;;;;;;;3.00;3.00;;;;;17.76;51.32;101677.34;5055382;28;10059;-70
2022/04/11 11:18:50;;;;;;;;;1.75;1.75;;;;;17.78;51.27;101671.16;5072857;28;9592;-69
2022/04/11 11:21:18;;;;;;;;;2.00;2.00;;;;;17.76;51.25;101674.69;5075077;28;8814;-70
2022/04/11 11:24:02;;;;;;;;;3.00;3.00;;;;;17.78;51.07;101667.66;5073568;28;9697;-69
2022/04/11 11:26:29;;;;;;;;;3.00;3.00;;;;;17.78;51.00;101663.25;5072941;28;9471;-70
2022/04/11 11:28:54;;;;;;;;;3.00;3.00;;;;;17.79;50.80;101661.50;5072306;28;9415;-69
2022/04/11 11:31:20;;;;;;;;;3.00;3.00;;;;;17.79;50.70;101641.25;5071623;28;9332;-70
2022/04/11 11:33:56;;;;;;;;;2.67;2.67;;;;;17.80;51.05;101656.22;5072484;28;8793;-69